createdAt,value
2018-06-04T00:02:39.445Z,20.5
2018-06-04T00:07:35.565Z,20.7
2018-06-04T00:12:31.561Z,20.7
2018-06-04T00:17:27.803Z,20.7
2018-06-04T00:22:23.964Z,20.6
2018-06-04T00:27:19.810Z,20.6
2018-06-04T00:32:15.804Z,20.7
2018-06-04T00:37:11.650Z,20.6
2018-06-04T00:42:08.025Z,20.6
2018-06-04T00:47:04.238Z,20.6
2018-06-04T00:52:00.316Z,20.5
2018-06-04T00:56:56.868Z,20.5
2018-06-04T01:01:52.945Z,20.5
2018-06-04T01:06:49.118Z,20.5
2018-06-04T01:11:45.662Z,20.5
2018-06-04T01:16:41.901Z,20.3
2018-06-04T01:21:37.366Z,20.4
2018-06-04T01:26:33.459Z,20.4
2018-06-04T01:31:29.633Z,20.4
2018-06-04T01:36:26.145Z,20.4
2018-06-04T01:41:22.088Z,20.4
2018-06-04T01:46:18.281Z,20.4
2018-06-04T01:51:14.257Z,20.3
2018-06-04T01:56:10.616Z,20.3
2018-06-04T02:01:06.503Z,20.2
2018-06-04T02:06:02.635Z,20.2
2018-06-04T02:10:58.696Z,20.2
2018-06-04T02:15:54.726Z,20.2
2018-06-04T02:20:50.853Z,20.1
2018-06-04T02:25:46.903Z,20.1
2018-06-04T02:30:43.249Z,20.1
2018-06-04T02:35:39.671Z,20
2018-06-04T02:40:36.182Z,20
2018-06-04T02:45:32.245Z,19.9
2018-06-04T02:50:28.435Z,19.9
2018-06-04T02:55:24.688Z,19.9
2018-06-04T03:00:20.919Z,19.8
2018-06-04T03:05:17.027Z,19.8
2018-06-04T03:10:12.996Z,19.8
2018-06-04T03:15:09.192Z,19.7
2018-06-04T03:20:05.563Z,19.7
2018-06-04T03:25:01.691Z,19.7
2018-06-04T03:29:57.599Z,19.6
2018-06-04T03:34:54.076Z,19.6
2018-06-04T03:39:49.825Z,19.6
2018-06-04T03:44:45.931Z,19.6
2018-06-04T03:49:42.128Z,19.5
2018-06-04T03:54:38.108Z,19.5
2018-06-04T03:59:34.205Z,19.5
2018-06-04T04:04:30.219Z,19.5
2018-06-04T04:09:26.467Z,19.5
2018-06-04T04:14:22.106Z,19.5
2018-06-04T04:19:18.189Z,19.5
2018-06-04T04:24:14.381Z,19.5
2018-06-04T04:29:10.372Z,19.5
2018-06-04T04:34:06.765Z,19.1
2018-06-04T04:39:03.117Z,19.5
2018-06-04T04:43:59.443Z,19.5
2018-06-04T04:48:55.371Z,19.5
2018-06-04T04:53:51.569Z,19.6
2018-06-04T04:58:47.791Z,19.6
2018-06-04T05:03:44.093Z,19.6
2018-06-04T05:08:39.978Z,19.6
2018-06-04T05:13:36.401Z,19.6
2018-06-04T05:18:32.505Z,19.7
2018-06-04T05:23:28.673Z,19.8
2018-06-04T05:28:24.320Z,19.8
2018-06-04T05:33:20.360Z,19.9
2018-06-04T05:38:16.105Z,20
2018-06-04T05:43:12.215Z,20
2018-06-04T05:48:08.076Z,20.1
2018-06-04T05:53:04.512Z,20.2
2018-06-04T05:58:00.361Z,20.3
2018-06-04T06:02:56.244Z,20.4
2018-06-04T06:07:52.401Z,20.5
2018-06-04T06:12:48.660Z,20.6
2018-06-04T06:17:44.395Z,20.6
2018-06-04T06:22:40.737Z,20.6
2018-06-04T06:27:36.683Z,20.6
2018-06-04T06:32:32.843Z,20.7
2018-06-04T06:37:29.718Z,20.8
2018-06-04T06:42:25.900Z,20.8
2018-06-04T06:47:21.459Z,21
2018-06-04T06:52:17.595Z,21.1
2018-06-04T06:57:13.904Z,21.2
2018-06-04T07:02:09.964Z,21.3
2018-06-04T07:07:06.294Z,21.3
2018-06-04T07:12:02.500Z,21.4
2018-06-04T07:16:58.743Z,21.5
2018-06-04T07:21:54.839Z,21.6
2018-06-04T07:26:51.071Z,21.7
2018-06-04T07:31:47.192Z,21.8
2018-06-04T07:36:42.903Z,21.9
2018-06-04T07:41:39.004Z,21.9
2018-06-04T07:46:34.737Z,22
2018-06-04T07:51:31.147Z,22.2
2018-06-04T07:56:27.284Z,22.3
2018-06-04T08:01:23.516Z,22.4
2018-06-04T08:06:19.650Z,22.5
2018-06-04T08:11:15.774Z,22.6
2018-06-04T08:16:11.995Z,22.7
2018-06-04T08:21:08.380Z,22.8
2018-06-04T08:26:04.423Z,22.9
2018-06-04T08:31:00.715Z,23.1
2018-06-04T08:35:57.097Z,23.1
2018-06-04T08:40:53.616Z,23.3
2018-06-04T08:45:49.630Z,23.4
2018-06-04T08:50:45.437Z,23.5
2018-06-04T08:55:41.630Z,23.5
2018-06-04T09:00:37.819Z,23
2018-06-04T09:05:34.416Z,23.6
2018-06-04T09:10:30.514Z,23.7
2018-06-04T09:15:26.398Z,23.9
2018-06-04T09:20:22.304Z,24
2018-06-04T09:25:17.985Z,24.1
2018-06-04T09:30:14.238Z,24.3
2018-06-04T09:35:10.685Z,24.5
2018-06-04T09:40:07.133Z,24.6
2018-06-04T09:45:03.440Z,24.8
2018-06-04T09:49:59.816Z,25
2018-06-04T09:54:56.171Z,25.1
2018-06-04T09:59:52.232Z,24.8
2018-06-04T10:04:48.651Z,24.9
2018-06-04T10:09:45.285Z,25.4
2018-06-04T10:14:41.724Z,25.5
2018-06-04T10:19:38.211Z,25.6
2018-06-04T10:24:34.531Z,25.7
2018-06-04T10:29:30.729Z,25.7
2018-06-04T10:34:26.755Z,25.8
2018-06-04T10:39:22.788Z,25.1
2018-06-04T10:44:18.966Z,25.9
2018-06-04T10:49:15.287Z,26
2018-06-04T10:54:11.364Z,26
2018-06-04T10:59:07.777Z,26.1
2018-06-04T11:04:03.979Z,26.2
2018-06-04T11:08:59.997Z,26.4
2018-06-04T11:13:56.467Z,26.5
2018-06-04T11:18:53.613Z,26.6
2018-06-04T11:23:49.761Z,26.8
2018-06-04T11:28:46.049Z,27
2018-06-04T11:33:42.237Z,22
2018-06-04T11:38:38.713Z,27.3
2018-06-04T11:43:34.962Z,27.5
2018-06-04T11:48:31.052Z,27.6
2018-06-04T11:53:27.218Z,27.8
2018-06-04T11:58:23.559Z,28
2018-06-04T12:03:19.835Z,28.1
2018-06-04T12:08:16.117Z,28.4
2018-06-04T12:13:12.331Z,28.5
2018-06-04T12:18:08.958Z,28.7
2018-06-04T12:23:05.417Z,28.9
2018-06-04T12:28:01.746Z,28.9
2018-06-04T12:32:58.609Z,28.9
2018-06-04T12:37:55.136Z,29
2018-06-04T12:42:50.836Z,29.1
2018-06-04T12:47:47.130Z,28.5
2018-06-04T12:52:42.935Z,29
2018-06-04T12:57:38.954Z,28.5
2018-06-04T13:02:35.165Z,28.2
2018-06-04T13:07:31.343Z,28.5
2018-06-04T13:12:28.055Z,29.2
2018-06-04T13:17:24.346Z,29.1
2018-06-04T13:22:20.809Z,29.3
2018-06-04T13:27:16.507Z,28.9
2018-06-04T13:32:12.596Z,28.7
2018-06-04T13:37:08.940Z,28.5
2018-06-04T13:42:04.825Z,28.1
2018-06-04T13:47:00.949Z,27.8
2018-06-04T13:51:56.638Z,27.6
2018-06-04T13:56:52.955Z,27.6
2018-06-04T14:01:49.455Z,23.2
2018-06-04T14:06:45.142Z,27.3
2018-06-04T14:11:41.636Z,27
2018-06-04T14:16:37.897Z,26.8
2018-06-04T14:21:34.204Z,26.7
2018-06-04T14:26:30.484Z,26.7
2018-06-04T14:31:26.820Z,26.9
2018-06-04T14:36:23.188Z,26.9
2018-06-04T14:41:19.429Z,27
2018-06-04T14:46:15.800Z,27.1
2018-06-04T14:51:12.099Z,27
2018-06-04T14:56:08.245Z,26.8
2018-06-04T15:01:04.180Z,26.7
2018-06-04T15:06:00.664Z,26.8
2018-06-04T15:10:56.390Z,26.8
2018-06-04T15:15:52.602Z,27
2018-06-04T15:20:49.100Z,27.1
2018-06-04T15:25:45.441Z,27
2018-06-04T15:30:41.936Z,27
2018-06-04T15:35:38.162Z,27
2018-06-04T15:40:34.495Z,27.1
2018-06-04T15:45:31.016Z,27.1
2018-06-04T15:50:27.104Z,27.1
2018-06-04T15:55:23.483Z,26.7
2018-06-04T16:00:19.690Z,26.9
2018-06-04T16:05:16.043Z,25.4
2018-06-04T16:10:12.181Z,26.6
2018-06-04T16:15:08.258Z,26.5
2018-06-04T16:20:04.401Z,26.5
2018-06-04T16:25:00.894Z,26.5
2018-06-04T16:29:57.007Z,26.4
2018-06-04T16:34:53.335Z,26.3
2018-06-04T16:39:49.638Z,26.2
2018-06-04T16:44:45.965Z,26.1
2018-06-04T16:49:42.032Z,26
2018-06-04T16:54:38.331Z,25.9
2018-06-04T16:59:34.611Z,25.8
2018-06-04T17:04:30.717Z,25.8
2018-06-04T17:09:26.701Z,25.7
2018-06-04T17:14:22.860Z,25.6
2018-06-04T17:19:18.621Z,25.5
2018-06-04T17:24:14.737Z,25.4
2018-06-04T17:29:10.685Z,25.4
2018-06-04T17:34:06.937Z,25.3
2018-06-04T17:39:02.945Z,25.1
2018-06-04T17:43:59.309Z,25
2018-06-04T17:48:55.226Z,24.9
2018-06-04T17:53:51.467Z,24.5
2018-06-04T17:58:47.375Z,24.6
2018-06-04T18:03:43.654Z,24.5
2018-06-04T18:08:39.776Z,24.4
2018-06-04T18:13:36.054Z,24.3
2018-06-04T18:18:32.148Z,24.2
2018-06-04T18:23:28.383Z,24.1
2018-06-04T18:28:24.573Z,24.1
2018-06-04T18:33:20.829Z,23.5
2018-06-04T18:38:16.878Z,24
2018-06-04T18:43:13.498Z,24
2018-06-04T18:48:09.195Z,23.5
2018-06-04T18:53:05.415Z,23.3
2018-06-04T18:58:01.503Z,23.3
2018-06-04T19:02:57.960Z,23
2018-06-04T19:07:54.123Z,23.1
2018-06-04T19:12:50.311Z,22.9
2018-06-04T19:17:46.524Z,22.8
2018-06-04T19:22:42.742Z,23.3
2018-06-04T19:27:38.502Z,23.1
2018-06-04T19:32:34.587Z,23
2018-06-04T19:37:30.709Z,23
2018-06-04T19:42:26.684Z,22.9
2018-06-04T19:47:22.936Z,22.8
2018-06-04T19:52:19.218Z,22.6
2018-06-04T19:57:15.468Z,22.7
2018-06-04T20:02:11.556Z,22.7
2018-06-04T20:07:07.544Z,22.6
2018-06-04T20:12:03.812Z,22.6
2018-06-04T20:16:59.663Z,22.5
2018-06-04T20:21:59.396Z,22.5
2018-06-04T20:26:54.490Z,22.4
2018-06-04T20:31:49.817Z,22.3
2018-06-04T20:36:46.102Z,22.2
2018-06-04T20:41:42.236Z,22.2
2018-06-04T20:46:38.199Z,22.1
2018-06-04T20:51:34.839Z,22.1
2018-06-04T20:56:30.925Z,22
2018-06-04T21:01:27.196Z,22
2018-06-04T21:06:23.387Z,22
2018-06-04T21:11:19.334Z,22
2018-06-04T21:16:15.426Z,22
2018-06-04T21:21:11.900Z,21.9
2018-06-04T21:26:07.913Z,21.9
2018-06-04T21:31:03.991Z,21.8
2018-06-04T21:36:00.151Z,21.7
2018-06-04T21:40:56.507Z,21.7
2018-06-04T21:45:52.916Z,21.6
2018-06-04T21:50:49.094Z,21.6
2018-06-04T21:55:45.266Z,21.6
2018-06-04T22:00:41.395Z,21.6
2018-06-04T22:05:37.442Z,21.6
2018-06-04T22:10:33.959Z,21
2018-06-04T22:15:30.042Z,21.6
2018-06-04T22:20:25.726Z,21.5
2018-06-04T22:25:21.698Z,21.5
2018-06-04T22:30:17.787Z,21.5
2018-06-04T22:35:13.680Z,21.5
2018-06-04T22:40:09.862Z,21.5
2018-06-04T22:45:06.028Z,21.4
2018-06-04T22:50:02.302Z,21.4
2018-06-04T22:54:58.770Z,21.3
2018-06-04T22:59:55.089Z,21.3
2018-06-04T23:04:51.058Z,21.3
2018-06-04T23:09:46.899Z,21.2
2018-06-04T23:14:43.185Z,18.2
2018-06-04T23:19:39.329Z,21.2
2018-06-04T23:24:35.705Z,21.1
2018-06-04T23:29:31.825Z,21.1
2018-06-04T23:34:28.200Z,21.1
2018-06-04T23:39:24.398Z,20.8
2018-06-04T23:44:20.512Z,21
2018-06-04T23:49:16.698Z,20.9
2018-06-04T23:54:13.067Z,20.9
2018-06-04T23:59:09.338Z,20.8
